Athensville, Illinois
Current Conditions -  °F | °C
As of 3:15 PM on Sunday 21 Dec 2014 (Local Time) from KIJX Reporting Station
Scattered Clouds Scattered Clouds  
Wind Chill: 35°   Ceiling: Unl
Heat Index: 42°   Visibility: 10mi
Dew Point: 34°   Wind: 10mph
Humidity: 76%   Direction: 140°SE
Pressure: 30.02"   Gusts: NA
Location:  39.491°N, 90.2996°W
Report Text: KIJX 212115Z AUTO 14009KT 10SM SCT036 05/01 A3002 RMK AO2 T00530013
Loading
Personal Weather Stations






























Interactive Weather Map New forecast layout! Learn more

10-Day Weather Forecast

Advertisements
Track Severe Weather on mobile